Time;durP1;ratioP1;P1;durP2;ratioP2;P2;SDS_P1;SDS_P2;PMS_P1;PMS_P2;Temp;Humidity;BMP_temperature;BMP_pressure;BME280_temperature;BME280_humidity;BME280_pressure;Samples;Min_cycle;Max_cycle;Signal;HPM_P1;HPM_P2
2022/07/27 00:00:06;;;;;;;;;;;22.60;63.80;;;;;;5002170;28;20327;-78
2022/07/27 00:02:38;;;;;;;;;;;22.50;63.70;;;;;;5013304;28;19994;-78
2022/07/27 00:05:06;;;;;;;;;;;22.50;63.90;;;;;;5014354;28;19929;-78
2022/07/27 00:07:34;;;;;;;;;;;22.50;63.90;;;;;;4999747;28;20370;-77
2022/07/27 00:10:01;;;;;;;;;;;22.40;63.90;;;;;;5004795;28;20306;-77
2022/07/27 00:12:28;;;;;;;;;;;22.40;63.90;;;;;;5002199;28;20016;-78
2022/07/27 00:14:57;;;;;;;;;;;22.50;64.10;;;;;;5014162;28;20395;-78
2022/07/27 00:17:24;;;;;;;;;;;22.30;64.10;;;;;;5000901;28;19929;-77
2022/07/27 00:19:51;;;;;;;;;;;22.30;64.20;;;;;;5002352;28;20372;-77
2022/07/27 00:22:18;;;;;;;;;;;22.30;64.20;;;;;;5006080;28;19925;-77
2022/07/27 00:24:46;;;;;;;;;;;22.20;64.20;;;;;;5001059;28;20032;-77
2022/07/27 00:27:13;;;;;;;;;;;22.20;64.30;;;;;;5028168;28;19931;-77
2022/07/27 00:29:40;;;;;;;;;;;22.20;64.40;;;;;;5017140;28;20439;-77
2022/07/27 00:32:07;;;;;;;;;;;22.10;64.40;;;;;;5004089;28;19941;-78
2022/07/27 00:34:34;;;;;;;;;;;22.10;64.60;;;;;;5005034;28;19930;-78
2022/07/27 00:37:01;;;;;;;;;;;22.10;64.70;;;;;;5019324;28;19926;-77
2022/07/27 00:39:28;;;;;;;;;;;22.00;64.70;;;;;;5007857;28;20000;-77
2022/07/27 00:41:56;;;;;;;;;;;22.00;64.70;;;;;;4998165;28;20351;-77
2022/07/27 00:44:26;;;;;;;;;;;22.00;64.80;;;;;;5031287;28;19927;-77
2022/07/27 00:46:53;;;;;;;;;;;22.00;64.90;;;;;;5031477;28;20342;-77
2022/07/27 00:49:20;;;;;;;;;;;21.90;64.90;;;;;;5002039;28;19934;-77
2022/07/27 00:51:47;;;;;;;;;;;21.90;64.40;;;;;;5004004;28;20444;-77
2022/07/27 00:54:14;;;;;;;;;;;21.90;65.00;;;;;;5006388;28;19925;-78
2022/07/27 00:56:41;;;;;;;;;;;21.90;65.10;;;;;;5007431;28;19961;-77
2022/07/27 00:59:11;;;;;;;;;;;21.80;65.00;;;;;;5006544;28;20398;-78
2022/07/27 01:01:37;;;;;;;;;;;21.80;65.00;;;;;;4999705;28;20006;-78
2022/07/27 01:04:04;;;;;;;;;;;21.80;65.30;;;;;;5030666;28;19924;-78
2022/07/27 01:06:33;;;;;;;;;;;21.70;64.80;;;;;;5007880;28;19969;-78
2022/07/27 01:11:41;;;;;;;;;;;21.70;65.50;;;;;;5022642;28;20009;-77
2022/07/27 01:14:08;;;;;;;;;;;;;;;;;;5003563;28;19926;-77
2022/07/27 01:16:36;;;;;;;;;;;21.70;65.10;;;;;;5002059;28;19929;-77
2022/07/27 01:19:03;;;;;;;;;;;21.60;65.60;;;;;;5004835;28;19933;-78
2022/07/27 01:21:33;;;;;;;;;;;21.60;65.70;;;;;;5011663;28;20283;-78
2022/07/27 01:24:01;;;;;;;;;;;21.60;65.70;;;;;;5014800;28;20420;-77
2022/07/27 01:26:28;;;;;;;;;;;21.60;65.70;;;;;;5019819;28;20944;-77
2022/07/27 01:28:56;;;;;;;;;;;21.60;65.80;;;;;;5005559;28;19938;-77
2022/07/27 01:31:23;;;;;;;;;;;21.50;65.80;;;;;;5001945;28;19955;-78
2022/07/27 01:33:50;;;;;;;;;;;21.50;65.80;;;;;;5006670;28;19932;-77
2022/07/27 01:36:17;;;;;;;;;;;21.50;66.00;;;;;;4998475;28;19926;-77
2022/07/27 01:38:45;;;;;;;;;;;21.50;66.00;;;;;;5015477;28;19925;-77
2022/07/27 01:41:13;;;;;;;;;;;21.40;66.00;;;;;;4994467;28;20460;-77
2022/07/27 01:43:39;;;;;;;;;;;21.40;66.00;;;;;;5009518;28;19961;-77
2022/07/27 01:46:07;;;;;;;;;;;21.40;66.10;;;;;;5011069;28;20394;-78
2022/07/27 01:48:33;;;;;;;;;;;21.30;66.10;;;;;;5005281;28;20004;-77
2022/07/27 01:51:00;;;;;;;;;;;21.40;66.30;;;;;;5014346;28;19940;-77
2022/07/27 01:53:27;;;;;;;;;;;21.30;66.30;;;;;;5003142;28;19926;-77
2022/07/27 01:55:55;;;;;;;;;;;21.30;66.50;;;;;;5002310;28;20281;-77
2022/07/27 01:58:22;;;;;;;;;;;21.30;66.50;;;;;;5002217;28;20024;-77
2022/07/27 02:00:49;;;;;;;;;;;21.30;66.40;;;;;;5020254;28;19955;-77
2022/07/27 02:03:16;;;;;;;;;;;21.20;66.50;;;;;;4999795;28;19933;-77
2022/07/27 02:05:43;;;;;;;;;;;21.20;66.60;;;;;;5032872;28;19929;-77
2022/07/27 02:08:10;;;;;;;;;;;21.20;67.00;;;;;;5021966;28;19928;-77
2022/07/27 02:12:34;;;;;;;;;;;21.20;66.80;;;;;;5019563;28;20418;-77
2022/07/27 02:13:24;;;;;;;;;;;21.10;66.70;;;;;;4999582;28;19930;-77
2022/07/27 02:15:51;;;;;;;;;;;21.10;66.90;;;;;;4998017;28;19965;-77
2022/07/27 02:18:18;;;;;;;;;;;21.10;67.00;;;;;;4998178;28;19968;-77
2022/07/27 02:20:44;;;;;;;;;;;21.10;67.00;;;;;;5001388;28;19973;-77
2022/07/27 02:23:11;;;;;;;;;;;21.00;72.00;;;;;;5009361;28;19967;-77
2022/07/27 02:25:39;;;;;;;;;;;21.00;67.00;;;;;;5008152;28;20012;-77
2022/07/27 02:28:06;;;;;;;;;;;21.00;67.10;;;;;;5000571;28;19981;-77
2022/07/27 02:30:34;;;;;;;;;;;21.00;67.30;;;;;;5004131;28;19925;-77
2022/07/27 02:33:01;;;;;;;;;;;21.00;67.30;;;;;;5006145;28;19935;-77
2022/07/27 02:35:28;;;;;;;;;;;21.00;67.40;;;;;;5006977;28;19929;-77
2022/07/27 02:37:55;;;;;;;;;;;20.90;67.50;;;;;;5010049;28;19933;-77
2022/07/27 02:40:22;;;;;;;;;;;20.90;67.50;;;;;;5033620;28;19930;-77
2022/07/27 02:42:48;;;;;;;;;;;20.90;67.50;;;;;;5003462;28;19971;-76
2022/07/27 02:45:15;;;;;;;;;;;20.90;68.30;;;;;;5005723;28;20395;-77
2022/07/27 02:47:44;;;;;;;;;;;20.80;67.60;;;;;;5033679;28;19930;-76
2022/07/27 02:50:11;;;;;;;;;;;20.80;67.60;;;;;;4994521;28;20014;-77
2022/07/27 02:52:37;;;;;;;;;;;20.80;67.70;;;;;;5005292;28;19941;-77
2022/07/27 02:55:05;;;;;;;;;;;20.80;67.90;;;;;;5005533;28;20025;-77
2022/07/27 02:57:33;;;;;;;;;;;20.80;67.90;;;;;;5024110;28;19976;-77
2022/07/27 03:00:00;;;;;;;;;;;20.70;67.90;;;;;;5005361;28;22025;-77
2022/07/27 03:02:27;;;;;;;;;;;20.70;67.90;;;;;;5022273;28;19953;-77
2022/07/27 03:04:55;;;;;;;;;;;20.70;68.10;;;;;;5004629;28;20307;-77
2022/07/27 03:07:21;;;;;;;;;;;20.70;68.40;;;;;;5010415;28;19930;-77
2022/07/27 03:09:48;;;;;;;;;;;20.70;68.60;;;;;;4999145;28;19933;-77
2022/07/27 03:12:15;;;;;;;;;;;20.70;68.40;;;;;;5002934;28;19925;-77
2022/07/27 03:14:42;;;;;;;;;;;20.60;68.30;;;;;;5002706;28;20012;-77
2022/07/27 03:17:09;;;;;;;;;;;20.60;68.30;;;;;;4999729;28;20387;-77
2022/07/27 03:19:35;;;;;;;;;;;20.60;68.30;;;;;;5013640;28;20021;-77
2022/07/27 03:22:04;;;;;;;;;;;20.60;68.50;;;;;;5001110;28;19979;-77
2022/07/27 03:24:30;;;;;;;;;;;20.60;68.40;;;;;;5011948;28;19926;-77
2022/07/27 03:26:57;;;;;;;;;;;20.50;68.40;;;;;;5016608;28;19936;-77
2022/07/27 03:29:24;;;;;;;;;;;20.50;68.40;;;;;;5021335;28;20320;-77
2022/07/27 03:31:51;;;;;;;;;;;20.50;68.50;;;;;;4996985;28;21399;-76
2022/07/27 03:34:18;;;;;;;;;;;20.50;68.50;;;;;;5015167;28;20012;-77
2022/07/27 03:36:45;;;;;;;;;;;20.50;67.90;;;;;;4995565;28;19998;-77
2022/07/27 03:39:13;;;;;;;;;;;20.50;68.50;;;;;;4998961;28;19971;-77
2022/07/27 03:41:40;;;;;;;;;;;20.40;68.40;;;;;;5009782;28;20322;-77
2022/07/27 03:44:06;;;;;;;;;;;20.40;68.50;;;;;;5029072;28;19933;-77
2022/07/27 03:46:33;;;;;;;;;;;20.40;68.50;;;;;;5004017;28;19929;-77
2022/07/27 03:49:00;;;;;;;;;;;20.40;68.40;;;;;;4998757;28;20318;-77
2022/07/27 03:51:27;;;;;;;;;;;20.40;68.50;;;;;;4989465;28;19929;-79
2022/07/27 03:53:54;;;;;;;;;;;20.40;68.50;;;;;;5008932;28;19926;-78
2022/07/27 03:56:23;;;;;;;;;;;20.30;68.50;;;;;;5008566;28;19925;-78
2022/07/27 03:58:49;;;;;;;;;;;20.30;68.50;;;;;;4999958;28;19936;-78
2022/07/27 04:01:16;;;;;;;;;;;20.30;68.60;;;;;;5003665;28;20370;-77
2022/07/27 04:03:43;;;;;;;;;;;20.30;68.50;;;;;;5002557;28;19926;-78
2022/07/27 04:06:10;;;;;;;;;;;20.30;68.60;;;;;;4995971;28;19925;-78
2022/07/27 04:08:37;;;;;;;;;;;20.30;68.60;;;;;;4995147;28;19929;-77
2022/07/27 04:11:03;;;;;;;;;;;20.30;68.60;;;;;;5003610;28;21298;-77
2022/07/27 04:13:32;;;;;;;;;;;20.20;68.70;;;;;;5003313;28;19929;-76
2022/07/27 04:15:58;;;;;;;;;;;20.20;68.90;;;;;;5006372;28;20429;-77
2022/07/27 04:18:25;;;;;;;;;;;20.20;68.70;;;;;;5003151;28;19983;-76
2022/07/27 04:20:52;;;;;;;;;;;20.20;68.70;;;;;;4998812;28;19929;-77
2022/07/27 04:23:19;;;;;;;;;;;20.20;68.70;;;;;;5018404;28;19963;-77
2022/07/27 04:25:46;;;;;;;;;;;20.10;68.80;;;;;;5007284;28;20377;-77
2022/07/27 04:28:12;;;;;;;;;;;20.20;68.90;;;;;;5005441;28;19925;-77
2022/07/27 04:30:41;;;;;;;;;;;20.20;68.80;;;;;;5005094;28;19970;-77
2022/07/27 04:33:07;;;;;;;;;;;20.10;68.90;;;;;;5007560;28;20020;-76
2022/07/27 04:35:34;;;;;;;;;;;20.10;69.00;;;;;;5009121;28;19926;-77
2022/07/27 04:38:01;;;;;;;;;;;20.10;68.90;;;;;;5003750;28;19930;-77
2022/07/27 04:40:32;;;;;;;;;;;20.10;68.90;;;;;;5006235;28;20375;-77
2022/07/27 04:42:59;;;;;;;;;;;20.10;69.00;;;;;;5014366;28;20322;-77
2022/07/27 04:45:26;;;;;;;;;;;20.10;69.10;;;;;;5001493;28;20043;-77
2022/07/27 04:47:54;;;;;;;;;;;20.10;69.10;;;;;;4994054;28;20035;-76
2022/07/27 04:50:21;;;;;;;;;;;20.00;69.30;;;;;;5008054;28;19926;-77
2022/07/27 04:52:48;;;;;;;;;;;20.00;69.30;;;;;;4996063;28;19971;-78
2022/07/27 04:55:15;;;;;;;;;;;20.00;69.20;;;;;;5020645;28;20386;-77
2022/07/27 04:57:42;;;;;;;;;;;20.00;69.30;;;;;;4992992;28;19936;-77
2022/07/27 05:00:11;;;;;;;;;;;20.00;69.30;;;;;;5002469;28;20010;-79
2022/07/27 05:02:39;;;;;;;;;;;20.00;70.00;;;;;;5016031;28;19925;-80
2022/07/27 05:05:08;;;;;;;;;;;20.00;69.40;;;;;;5017705;28;19930;-78
2022/07/27 05:07:35;;;;;;;;;;;20.00;69.60;;;;;;4994768;28;19933;-80
2022/07/27 05:10:02;;;;;;;;;;;19.90;69.50;;;;;;4992264;28;19933;-78
2022/07/27 05:12:29;;;;;;;;;;;19.90;69.60;;;;;;4985716;28;19986;-78
2022/07/27 05:14:56;;;;;;;;;;;19.90;69.80;;;;;;4994123;28;19933;-77
2022/07/27 05:17:23;;;;;;;;;;;19.90;69.80;;;;;;4999711;28;19998;-78
2022/07/27 05:19:49;;;;;;;;;;;19.90;69.80;;;;;;5004658;28;20380;-77
2022/07/27 05:22:18;;;;;;;;;;;19.90;69.70;;;;;;4989396;28;19979;-77
2022/07/27 05:24:45;;;;;;;;;;;19.90;69.70;;;;;;4995255;28;19967;-78
2022/07/27 05:27:12;;;;;;;;;;;19.80;69.70;;;;;;4996054;28;19937;-78
2022/07/27 05:29:39;;;;;;;;;;;19.80;69.80;;;;;;5000419;28;19997;-78
2022/07/27 05:32:06;;;;;;;;;;;19.90;69.90;;;;;;4998275;28;20333;-78
2022/07/27 05:34:33;;;;;;;;;;;19.80;69.80;;;;;;5001764;28;19972;-78
2022/07/27 05:37:00;;;;;;;;;;;19.80;69.90;;;;;;4991404;28;20062;-77
2022/07/27 05:39:28;;;;;;;;;;;19.80;69.80;;;;;;5004059;28;19926;-77
2022/07/27 05:41:55;;;;;;;;;;;19.80;69.90;;;;;;4995092;28;20006;-77
2022/07/27 05:44:22;;;;;;;;;;;19.80;69.80;;;;;;5018844;23;19931;-75
2022/07/27 05:46:49;;;;;;;;;;;19.80;69.90;;;;;;5062419;28;19929;-75
2022/07/27 05:49:16;;;;;;;;;;;19.80;69.90;;;;;;5055981;28;19931;-76
2022/07/27 05:51:43;;;;;;;;;;;19.80;69.70;;;;;;5043947;28;19925;-75
2022/07/27 05:54:10;;;;;;;;;;;19.80;69.70;;;;;;5037250;28;19924;-76
2022/07/27 05:56:38;;;;;;;;;;;19.80;69.70;;;;;;5062789;28;19968;-75
2022/07/27 05:59:05;;;;;;;;;;;19.80;69.70;;;;;;5063949;28;19935;-76
2022/07/27 06:01:32;;;;;;;;;;;19.80;69.90;;;;;;5057076;28;20395;-76
2022/07/27 06:03:59;;;;;;;;;;;19.80;70.00;;;;;;5054605;28;20402;-76
2022/07/27 06:09:10;;;;;;;;;;;19.80;70.00;;;;;;5061547;28;19954;-78
2022/07/27 06:11:38;;;;;;;;;;;19.80;70.20;;;;;;5058220;28;20349;-76
2022/07/27 06:14:05;;;;;;;;;;;19.70;70.40;;;;;;5036556;28;19932;-76
2022/07/27 06:16:32;;;;;;;;;;;19.70;70.60;;;;;;5039476;28;19991;-77
2022/07/27 06:18:59;;;;;;;;;;;19.70;71.30;;;;;;5066539;28;20027;-76
2022/07/27 06:21:27;;;;;;;;;;;19.70;71.40;;;;;;5066203;28;20454;-77
2022/07/27 06:23:54;;;;;;;;;;;19.70;71.30;;;;;;5064149;28;20382;-76
2022/07/27 06:26:21;;;;;;;;;;;19.70;71.40;;;;;;5059989;28;19931;-77
2022/07/27 06:28:49;;;;;;;;;;;19.70;71.40;;;;;;5054645;28;19990;-78
2022/07/27 06:31:16;;;;;;;;;;;19.70;71.00;;;;;;5067732;28;19925;-78
2022/07/27 06:33:43;;;;;;;;;;;19.70;71.00;;;;;;5050297;28;19928;-77
2022/07/27 06:36:09;;;;;;;;;;;19.70;70.90;;;;;;5060766;28;19925;-77
2022/07/27 06:38:36;;;;;;;;;;;19.70;70.90;;;;;;5065589;28;19931;-77
2022/07/27 06:41:03;;;;;;;;;;;19.70;70.80;;;;;;5062536;28;20443;-78
2022/07/27 06:43:31;;;;;;;;;;;19.70;70.70;;;;;;5066885;28;19924;-77
2022/07/27 06:46:02;;;;;;;;;;;19.70;71.10;;;;;;5064087;28;20013;-77
2022/07/27 06:48:28;;;;;;;;;;;19.70;71.40;;;;;;5068533;28;20044;-77
2022/07/27 06:50:55;;;;;;;;;;;19.70;71.70;;;;;;5065444;28;19924;-78
2022/07/27 06:53:23;;;;;;;;;;;19.70;71.50;;;;;;5066929;28;19931;-78
2022/07/27 06:55:50;;;;;;;;;;;19.70;71.60;;;;;;5062586;28;19924;-77
2022/07/27 06:58:17;;;;;;;;;;;19.70;71.50;;;;;;5067894;28;19978;-77
2022/07/27 07:00:44;;;;;;;;;;;19.70;71.90;;;;;;5060708;28;19947;-77
2022/07/27 07:03:12;;;;;;;;;;;19.80;71.70;;;;;;5072596;28;20058;-77
2022/07/27 07:05:41;;;;;;;;;;;19.80;71.60;;;;;;5049089;28;19932;-78
2022/07/27 07:08:10;;;;;;;;;;;19.80;71.60;;;;;;5064521;28;19979;-77
2022/07/27 07:10:37;;;;;;;;;;;19.80;72.00;;;;;;5062338;28;20392;-77
2022/07/27 07:13:05;;;;;;;;;;;19.80;72.30;;;;;;5055419;28;20011;-77
2022/07/27 07:15:32;;;;;;;;;;;19.80;72.10;;;;;;5066369;28;20519;-78
2022/07/27 07:18:01;;;;;;;;;;;19.80;72.00;;;;;;5063460;28;19932;-78
2022/07/27 07:20:30;;;;;;;;;;;19.80;71.90;;;;;;5049507;28;20434;-77
2022/07/27 07:22:56;;;;;;;;;;;19.80;72.40;;;;;;5066188;28;19929;-77
2022/07/27 07:25:23;;;;;;;;;;;19.80;72.50;;;;;;5060610;28;20405;-77
2022/07/27 07:27:50;;;;;;;;;;;19.80;72.10;;;;;;5045346;28;20431;-77
2022/07/27 07:30:17;;;;;;;;;;;19.80;72.30;;;;;;5062941;28;19924;-79
2022/07/27 07:32:44;;;;;;;;;;;19.80;72.60;;;;;;5063710;28;19975;-77
2022/07/27 07:35:11;;;;;;;;;;;19.80;73.00;;;;;;5047376;28;19928;-78
2022/07/27 07:37:39;;;;;;;;;;;19.80;73.00;;;;;;5065093;28;20556;-78
2022/07/27 07:45:08;;;;;;;;;;;19.90;72.60;;;;;;5025297;28;19926;-76
2022/07/27 07:47:35;;;;;;;;;;;19.90;72.90;;;;;;4965039;28;19972;-77
2022/07/27 07:50:02;;;;;;;;;;;19.90;72.90;;;;;;4967238;28;20296;-77
2022/07/27 07:52:29;;;;;;;;;;;19.90;72.50;;;;;;5042365;28;19979;-77
2022/07/27 07:54:57;;;;;;;;;;;19.90;72.70;;;;;;5037057;28;19931;-77
2022/07/27 07:57:24;;;;;;;;;;;19.90;72.60;;;;;;5020224;28;19931;-78
2022/07/27 07:59:51;;;;;;;;;;;20.00;73.30;;;;;;5046646;28;19928;-78
2022/07/27 08:02:19;;;;;;;;;;;20.10;73.20;;;;;;5049978;28;19947;-77
2022/07/27 08:04:46;;;;;;;;;;;20.10;73.20;;;;;;5042845;28;19925;-78
2022/07/27 08:07:14;;;;;;;;;;;20.10;73.10;;;;;;5049341;28;20054;-77
2022/07/27 08:09:41;;;;;;;;;;;20.10;73.10;;;;;;5049782;28;19953;-77
2022/07/27 08:12:09;;;;;;;;;;;20.10;73.00;;;;;;5044307;28;19925;-78
2022/07/27 08:14:36;;;;;;;;;;;20.10;73.00;;;;;;5046111;28;20026;-78
2022/07/27 08:17:03;;;;;;;;;;;20.10;72.90;;;;;;5046241;28;19994;-78
2022/07/27 08:19:30;;;;;;;;;;;20.10;73.00;;;;;;5047355;28;20405;-78
2022/07/27 08:21:57;;;;;;;;;;;20.10;72.90;;;;;;5042906;28;19925;-77
2022/07/27 08:24:24;;;;;;;;;;;20.20;73.00;;;;;;5043743;28;19924;-78
2022/07/27 08:26:51;;;;;;;;;;;20.10;72.80;;;;;;5058554;28;19948;-80
2022/07/27 08:29:20;;;;;;;;;;;20.10;72.90;;;;;;5039989;28;19925;-78
2022/07/27 08:31:46;;;;;;;;;;;20.10;72.80;;;;;;5041569;28;20395;-77
2022/07/27 08:34:13;;;;;;;;;;;20.20;72.60;;;;;;5045176;28;19928;-77
2022/07/27 08:36:40;;;;;;;;;;;20.20;72.70;;;;;;5048929;28;19925;-79
2022/07/27 08:39:07;;;;;;;;;;;20.20;72.80;;;;;;5043410;28;19960;-77
2022/07/27 08:41:37;;;;;;;;;;;20.20;72.80;;;;;;5044705;28;19925;-78
2022/07/27 08:44:05;;;;;;;;;;;20.20;72.40;;;;;;5045406;28;19925;-78
2022/07/27 08:46:34;;;;;;;;;;;20.20;72.30;;;;;;5052107;28;19925;-77
2022/07/27 08:49:02;;;;;;;;;;;20.20;72.30;;;;;;5038032;28;19933;-78
2022/07/27 08:51:29;;;;;;;;;;;20.30;72.60;;;;;;5044394;28;19925;-77
2022/07/27 08:53:56;;;;;;;;;;;20.30;72.40;;;;;;5048833;28;19932;-77
2022/07/27 08:56:24;;;;;;;;;;;20.30;72.10;;;;;;5043555;28;20388;-78
2022/07/27 08:58:51;;;;;;;;;;;20.30;72.10;;;;;;5044174;28;19928;-78
2022/07/27 09:01:17;;;;;;;;;;;20.30;71.90;;;;;;5044582;28;19929;-78
2022/07/27 09:03:46;;;;;;;;;;;20.30;72.20;;;;;;5045126;28;19933;-77
2022/07/27 09:06:12;;;;;;;;;;;20.30;72.20;;;;;;5044242;28;19925;-77
2022/07/27 09:08:40;;;;;;;;;;;20.30;72.40;;;;;;5038770;28;20027;-78
2022/07/27 09:11:13;;;;;;;;;;;20.30;72.40;;;;;;5043096;28;19924;-78
2022/07/27 09:13:39;;;;;;;;;;;20.40;72.60;;;;;;5038298;28;19968;-77
2022/07/27 09:16:08;;;;;;;;;;;20.40;72.60;;;;;;5049868;28;19924;-78
2022/07/27 09:18:36;;;;;;;;;;;20.40;72.10;;;;;;5027750;28;20387;-77
2022/07/27 09:21:11;;;;;;;;;;;20.40;72.20;;;;;;5037463;28;19940;-78
2022/07/27 09:23:39;;;;;;;;;;;20.40;72.20;;;;;;5043721;28;20801;-78
2022/07/27 09:26:09;;;;;;;;;;;20.40;72.20;;;;;;5041462;28;20387;-78
2022/07/27 09:28:36;;;;;;;;;;;20.40;72.00;;;;;;5041596;28;20398;-77
2022/07/27 09:31:06;;;;;;;;;;;20.50;71.90;;;;;;5041856;28;19968;-78
2022/07/27 09:33:40;;;;;;;;;;;20.50;71.80;;;;;;5045868;28;19924;-78
2022/07/27 09:36:07;;;;;;;;;;;20.50;71.70;;;;;;5041029;28;19933;-78
2022/07/27 09:38:35;;;;;;;;;;;20.50;71.80;;;;;;5043661;28;20375;-78
2022/07/27 09:41:03;;;;;;;;;;;20.50;71.70;;;;;;5043367;28;19978;-78
2022/07/27 09:43:30;;;;;;;;;;;20.50;71.90;;;;;;5049623;28;19934;-78
2022/07/27 09:46:05;;;;;;;;;;;20.50;72.00;;;;;;5040239;28;20439;-77
2022/07/27 09:48:33;;;;;;;;;;;20.50;71.90;;;;;;5042231;28;19925;-78
2022/07/27 09:51:01;;;;;;;;;;;20.60;72.10;;;;;;5028234;28;19929;-79
2022/07/27 09:53:31;;;;;;;;;;;20.60;71.90;;;;;;5047543;28;19925;-78
2022/07/27 09:56:00;;;;;;;;;;;20.60;72.10;;;;;;5043419;28;20015;-78
2022/07/27 09:58:41;;;;;;;;;;;20.60;72.00;;;;;;5051284;28;19999;-78
2022/07/27 10:01:08;;;;;;;;;;;20.60;71.90;;;;;;5046616;28;19932;-78
2022/07/27 10:03:35;;;;;;;;;;;20.60;71.70;;;;;;5047836;28;20009;-78
2022/07/27 10:06:02;;;;;;;;;;;20.70;71.90;;;;;;5051519;28;19932;-78
2022/07/27 10:08:29;;;;;;;;;;;20.70;71.90;;;;;;5040774;28;20019;-77
2022/07/27 10:10:57;;;;;;;;;;;20.70;71.70;;;;;;5037271;28;20307;-77
2022/07/27 10:13:25;;;;;;;;;;;20.70;71.50;;;;;;5021752;28;19929;-77
2022/07/27 10:15:52;;;;;;;;;;;20.70;71.70;;;;;;5046022;28;20019;-76
2022/07/27 10:18:21;;;;;;;;;;;20.80;71.00;;;;;;5042882;28;19928;-78
2022/07/27 10:20:48;;;;;;;;;;;20.80;71.20;;;;;;5042890;28;20449;-76
2022/07/27 10:23:25;;;;;;;;;;;20.80;71.50;;;;;;5027804;28;20047;-78
2022/07/27 10:26:07;;;;;;;;;;;20.80;71.30;;;;;;5042756;28;20015;-78
2022/07/27 10:28:47;;;;;;;;;;;20.80;71.30;;;;;;5038496;28;20394;-79
2022/07/27 10:31:17;;;;;;;;;;;20.90;71.30;;;;;;5043862;28;19933;-76
2022/07/27 10:33:44;;;;;;;;;;;20.90;71.20;;;;;;5045797;28;19925;-76
2022/07/27 10:36:14;;;;;;;;;;;20.90;71.20;;;;;;5043687;28;20047;-76
2022/07/27 10:38:48;;;;;;;;;;;20.90;70.90;;;;;;5045202;28;19924;-76
2022/07/27 10:41:22;;;;;;;;;;;20.90;70.60;;;;;;5045054;28;19929;-74
2022/07/27 10:43:50;;;;;;;;;;;20.90;70.60;;;;;;5047597;28;19980;-78
2022/07/27 10:46:20;;;;;;;;;;;20.90;70.40;;;;;;5036696;28;20016;-79
2022/07/27 10:48:47;;;;;;;;;;;21.00;70.50;;;;;;5040322;28;19932;-79
2022/07/27 10:51:15;;;;;;;;;;;21.00;70.70;;;;;;5040686;28;23121;-78
2022/07/27 10:53:42;;;;;;;;;;;21.00;70.60;;;;;;5041324;28;19933;-75
2022/07/27 10:56:09;;;;;;;;;;;21.00;70.40;;;;;;5044969;28;20305;-75
2022/07/27 10:58:57;;;;;;;;;;;21.00;69.60;;;;;;5045748;28;20012;-76
2022/07/27 11:01:26;;;;;;;;;;;21.00;70.20;;;;;;5037141;28;19929;-75
2022/07/27 11:03:53;;;;;;;;;;;21.10;69.60;;;;;;5034084;28;19928;-80
2022/07/27 11:06:24;;;;;;;;;;;21.10;69.60;;;;;;5035896;28;19925;-76
2022/07/27 11:08:51;;;;;;;;;;;21.00;69.20;;;;;;5033398;28;19998;-76
2022/07/27 11:11:19;;;;;;;;;;;21.10;69.40;;;;;;5036602;28;20307;-76
2022/07/27 11:13:46;;;;;;;;;;;21.10;69.40;;;;;;5034625;28;19933;-75
2022/07/27 11:16:15;;;;;;;;;;;21.10;69.20;;;;;;5036093;28;19938;-76
2022/07/27 11:18:44;;;;;;;;;;;21.20;69.50;;;;;;5040148;28;19928;-76
2022/07/27 11:21:17;;;;;;;;;;;21.10;69.60;;;;;;5035147;28;20430;-76
2022/07/27 11:23:44;;;;;;;;;;;21.20;69.40;;;;;;5039455;28;20415;-76
2022/07/27 11:26:11;;;;;;;;;;;21.20;69.60;;;;;;5039585;28;19963;-76
2022/07/27 11:28:39;;;;;;;;;;;21.30;70.10;;;;;;5036794;28;20396;-74
2022/07/27 11:31:06;;;;;;;;;;;21.30;69.50;;;;;;5037942;28;20387;-76
2022/07/27 11:33:33;;;;;;;;;;;21.30;69.40;;;;;;5034741;28;20019;-76
2022/07/27 11:36:01;;;;;;;;;;;21.30;68.80;;;;;;5042532;28;19963;-76
2022/07/27 11:38:28;;;;;;;;;;;21.30;69.10;;;;;;5033125;28;20087;-76
2022/07/27 11:40:55;;;;;;;;;;;21.30;69.50;;;;;;5037019;28;19929;-77
2022/07/27 11:43:35;;;;;;;;;;;21.40;68.60;;;;;;5038900;28;19979;-77
2022/07/27 11:46:23;;;;;;;;;;;21.40;68.70;;;;;;5043141;28;19931;-77
2022/07/27 11:48:52;;;;;;;;;;;21.40;68.60;;;;;;5041879;28;19937;-77
2022/07/27 11:51:21;;;;;;;;;;;21.40;68.70;;;;;;5039619;28;19929;-75
2022/07/27 11:53:48;;;;;;;;;;;21.40;68.60;;;;;;5041744;28;19925;-77
2022/07/27 11:56:21;;;;;;;;;;;21.50;68.70;;;;;;5037339;28;19932;-76
2022/07/27 11:58:57;;;;;;;;;;;21.50;68.70;;;;;;5041653;28;19929;-77
2022/07/27 12:01:28;;;;;;;;;;;21.60;68.90;;;;;;5045080;28;19928;-77
2022/07/27 12:04:17;;;;;;;;;;;21.60;68.80;;;;;;5036912;28;19932;-77
2022/07/27 12:06:46;;;;;;;;;;;21.60;68.80;;;;;;5028696;28;20403;-75
2022/07/27 12:09:13;;;;;;;;;;;21.60;68.30;;;;;;5036138;28;19929;-77
2022/07/27 12:11:52;;;;;;;;;;;21.70;68.60;;;;;;5039176;28;19925;-76
2022/07/27 12:14:19;;;;;;;;;;;21.70;68.60;;;;;;5035210;28;19931;-76
2022/07/27 12:16:46;;;;;;;;;;;21.80;69.00;;;;;;5037322;28;19929;-76
2022/07/27 12:19:21;;;;;;;;;;;21.80;68.60;;;;;;5019157;28;20028;-77
2022/07/27 12:21:52;;;;;;;;;;;21.80;68.60;;;;;;5041725;28;19940;-76
2022/07/27 12:24:19;;;;;;;;;;;21.80;68.60;;;;;;5034663;28;19933;-75
2022/07/27 12:27:01;;;;;;;;;;;21.90;68.80;;;;;;5028690;28;20387;-77
2022/07/27 12:29:28;;;;;;;;;;;21.90;68.80;;;;;;5038420;28;19979;-76
2022/07/27 12:32:01;;;;;;;;;;;22.00;69.00;;;;;;5036476;28;19957;-76
2022/07/27 12:34:31;;;;;;;;;;;22.00;68.60;;;;;;5039363;28;20387;-76
2022/07/27 12:36:59;;;;;;;;;;;22.00;68.70;;;;;;5039734;28;19925;-76
2022/07/27 12:39:27;;;;;;;;;;;22.00;69.10;;;;;;5035346;28;20015;-76
2022/07/27 12:42:02;;;;;;;;;;;22.10;69.10;;;;;;5027807;28;19936;-76
2022/07/27 12:44:32;;;;;;;;;;;22.10;69.20;;;;;;5036387;28;19933;-76
2022/07/27 12:47:00;;;;;;;;;;;22.20;69.30;;;;;;5039048;28;19932;-76
2022/07/27 12:49:33;;;;;;;;;;;22.20;69.40;;;;;;5039219;28;20015;-76
2022/07/27 12:52:06;;;;;;;;;;;22.30;69.60;;;;;;5037321;28;20494;-76
2022/07/27 12:54:33;;;;;;;;;;;22.30;70.20;;;;;;5039308;28;20103;-76
2022/07/27 12:57:00;;;;;;;;;;;22.30;69.50;;;;;;5044208;28;19925;-75
2022/07/27 12:59:27;;;;;;;;;;;22.30;69.80;;;;;;5038097;28;19928;-76
2022/07/27 13:01:54;;;;;;;;;;;22.40;69.70;;;;;;5038233;28;19924;-76
2022/07/27 13:04:21;;;;;;;;;;;22.40;69.70;;;;;;5040985;28;20002;-76
2022/07/27 13:06:48;;;;;;;;;;;22.50;69.50;;;;;;5104905;23;19929;-76
2022/07/27 13:09:16;;;;;;;;;;;22.50;68.80;;;;;;5072870;28;19939;-81
2022/07/27 13:11:43;;;;;;;;;;;22.60;69.50;;;;;;5082545;28;20405;-79
2022/07/27 13:14:10;;;;;;;;;;;22.70;69.70;;;;;;5065694;28;19958;-80
2022/07/27 13:16:37;;;;;;;;;;;22.70;69.50;;;;;;5085103;28;19924;-80
2022/07/27 13:19:04;;;;;;;;;;;22.70;69.40;;;;;;5084783;28;20322;-80
2022/07/27 13:21:30;;;;;;;;;;;22.80;68.90;;;;;;5088972;28;21948;-79
2022/07/27 13:23:57;;;;;;;;;;;22.90;68.50;;;;;;5079917;28;20772;-79
2022/07/27 13:26:26;;;;;;;;;;;22.90;68.50;;;;;;5078957;28;19924;-81
2022/07/27 13:28:52;;;;;;;;;;;22.90;68.60;;;;;;5068347;28;19924;-81
2022/07/27 13:31:19;;;;;;;;;;;23.00;68.40;;;;;;5077314;28;20466;-80
2022/07/27 13:33:46;;;;;;;;;;;23.00;68.40;;;;;;5059906;28;19985;-80
2022/07/27 13:36:13;;;;;;;;;;;23.00;68.40;;;;;;5078239;28;19990;-80
2022/07/27 13:38:40;;;;;;;;;;;23.10;68.50;;;;;;5084340;28;19924;-79
2022/07/27 13:41:08;;;;;;;;;;;23.10;68.30;;;;;;5092551;28;19958;-80
2022/07/27 13:43:36;;;;;;;;;;;23.10;68.60;;;;;;5090738;28;19951;-80
2022/07/27 13:46:03;;;;;;;;;;;23.10;68.80;;;;;;5074540;28;19986;-80
2022/07/27 13:48:31;;;;;;;;;;;23.20;69.10;;;;;;5086530;28;20294;-79
2022/07/27 13:50:58;;;;;;;;;;;23.20;69.20;;;;;;5072237;28;19932;-79
2022/07/27 13:53:24;;;;;;;;;;;23.20;69.10;;;;;;5091790;28;20027;-79
2022/07/27 13:55:51;;;;;;;;;;;23.20;68.80;;;;;;5091072;28;19925;-80
2022/07/27 13:58:18;;;;;;;;;;;23.30;69.10;;;;;;5092859;28;19973;-80
2022/07/27 14:00:48;;;;;;;;;;;23.30;69.20;;;;;;5074363;28;20660;-80
2022/07/27 14:03:15;;;;;;;;;;;23.30;69.20;;;;;;5090722;28;20439;-81
2022/07/27 14:05:42;;;;;;;;;;;23.40;69.30;;;;;;5097815;28;19924;-80
2022/07/27 14:08:09;;;;;;;;;;;23.40;69.20;;;;;;5088948;28;19940;-80
2022/07/27 14:10:41;;;;;;;;;;;23.40;69.30;;;;;;5067886;28;19925;-80
2022/07/27 14:13:10;;;;;;;;;;;23.40;69.30;;;;;;5082285;28;20440;-79
2022/07/27 14:15:37;;;;;;;;;;;23.50;69.40;;;;;;5088916;28;20803;-80
2022/07/27 14:18:05;;;;;;;;;;;23.50;69.50;;;;;;5084823;28;20011;-80
2022/07/27 14:20:33;;;;;;;;;;;23.50;69.50;;;;;;5056297;28;19932;-79
2022/07/27 14:23:00;;;;;;;;;;;23.50;69.40;;;;;;5085670;28;19987;-81
2022/07/27 14:25:27;;;;;;;;;;;23.60;69.40;;;;;;5067013;28;20313;-82
2022/07/27 14:27:54;;;;;;;;;;;23.60;69.00;;;;;;5082987;28;20030;-82
2022/07/27 14:30:21;;;;;;;;;;;23.60;68.50;;;;;;5084948;28;19950;-81
2022/07/27 14:32:48;;;;;;;;;;;23.60;68.40;;;;;;5094279;28;20437;-81